Drummond, MI

10:26 AM EDT on April 01, 2015 (GMT -0400)
Drummond Island | | Change Station
CLOSE
Current Station
Airport
Location: Drummond Island,
Elevation: 669 ft
Nearby Weather Stations

Elev 669 ft 46.01 °N, 83.74 °W | Updated 31 minutes ago

Overcast
Overcast
33 °F
Feels Like 33 °F
N
0
Wind Variable Wind from North

Today
High -- | Low -- °F
--% Chance of Precip.
Yesterday
High -- | Low -- °F
Precip. -- in
7:15 AM 8:03 PM
Waxing Gibbous, 93% visible
Pressure 30.09 in
Visibility 10.0 miles
Clouds Overcast 1400 ft
Dew Point 27 °F
Humidity 76%
Rainfall 0.00 in
Snow Depth Not available.
UV 1 out of 12
Pollen 2.90 out of 12
Air Quality Not available.
Flu Activity Not available.
METAR KDRM 011355Z AUTO 00000KT 10SM OVC014 01/M03 A3009 RMK AO2 T00081030

More Conditions Fewer Conditions

Pressure 30.09 in
Visibility 10.0 miles
Clouds Overcast 1400 ft
Dew Point 27 °F
Humidity 76%
Rainfall 0.00 in
Snow Depth Not available.
UV 1 out of 12
Pollen 2.90 out of 12
Air Quality Not available.
Flu Activity Not available.
METAR KDRM 011355Z AUTO 00000KT 10SM OVC014 01/M03 A3009 RMK AO2 T00081030

More Conditions Fewer Conditions

Nowcast | as of 10:00 am EDT on April 1, 2015

At 11 am...partly cloudy. Temperature 34. East winds 7 mph. At 1 PM...mostly cloudy. Temperature 37. Southeast winds 9 mph. At 3 PM...mostly cloudy. Chance of rain or snow. Temperature 39. Southeast winds 10 mph. At 5 PM...cloudy. Chance of rain or snow. Temperature 38. Southeast winds 14 mph.

×

10-Day Weather Forecast

Almanac

Astronomy

Apr. 01, 2015 Rise Set
Actual Time
Civil Twilight
Nautical Twilight
Astronomical Twilight
Moon
Length of Visible Light
Length of Day
Tomorrow will be .
, % of the Moon is Illuminated

Today's Extremes

State Highs State Lows

Community

WunderPhotos

Upload Photos

1,809,962 photos uploaded!

WunderBlogs® & News

Nearby

Air Quality

  Air Quality AQ Index Pollutant
Not available.

Snow Depth

Station Depth Elevation

Earthquake Activity

City Distance Mag. Time & Date
Minimum magnitude displayed is 2.5.

Coastal Water Temperatures

Place Temperature

Stations

Nearby Weather Stations

Station Location Temp. Windchill Dew Point Humidity Wind Precip. Elev Updated Type